createdAt,value
2018-12-13T00:00:41.299Z,2.59
2018-12-13T00:01:41.285Z,2.62
2018-12-13T00:02:41.267Z,2.53
2018-12-13T00:03:41.251Z,2.51
2018-12-13T00:04:41.233Z,2.48
2018-12-13T00:05:41.217Z,2.32
2018-12-13T00:06:41.200Z,2.38
2018-12-13T00:07:41.183Z,2.36
2018-12-13T00:08:41.222Z,2.36
2018-12-13T00:09:41.151Z,2.29
2018-12-13T00:10:41.134Z,2.32
2018-12-13T00:11:41.117Z,2.33
2018-12-13T00:12:41.101Z,2.32
2018-12-13T00:13:41.089Z,2.30
2018-12-13T00:14:41.066Z,2.29
2018-12-13T00:15:41.049Z,2.20
2018-12-13T00:16:41.035Z,2.15
2018-12-13T00:17:41.015Z,2.18
2018-12-13T00:18:41.000Z,2.22
2018-12-13T00:19:40.981Z,2.02
2018-12-13T00:20:40.965Z,2.09
2018-12-13T00:21:40.948Z,2.18
2018-12-13T00:22:40.932Z,2.12
2018-12-13T00:23:40.915Z,2.12
2018-12-13T00:24:40.897Z,2.19
2018-12-13T00:25:40.882Z,2.25
2018-12-13T00:26:40.867Z,2.27
2018-12-13T00:27:40.850Z,2.33
2018-12-13T00:28:40.830Z,2.29
2018-12-13T00:29:40.814Z,2.40
2018-12-13T00:30:40.796Z,2.45
2018-12-13T00:31:40.781Z,2.59
2018-12-13T00:32:40.764Z,2.58
2018-12-13T00:33:40.747Z,2.53
2018-12-13T00:34:40.731Z,2.53
2018-12-13T00:35:40.713Z,2.51
2018-12-13T00:36:40.698Z,2.47
2018-12-13T00:37:40.683Z,2.37
2018-12-13T00:38:40.664Z,2.45
2018-12-13T00:39:40.650Z,2.32
2018-12-13T00:40:40.631Z,2.29
2018-12-13T00:41:40.613Z,2.29
2018-12-13T00:42:40.598Z,2.37
2018-12-13T00:43:40.580Z,2.32
2018-12-13T00:44:40.566Z,2.23
2018-12-13T00:45:40.546Z,2.12
2018-12-13T00:46:40.529Z,2.18
2018-12-13T00:47:40.514Z,2.09
2018-12-13T00:48:40.495Z,2.23
2018-12-13T00:49:40.479Z,2.09
2018-12-13T00:50:40.462Z,2.01
2018-12-13T00:51:40.446Z,1.98
2018-12-13T00:52:40.431Z,1.89
2018-12-13T00:53:40.410Z,1.95
2018-12-13T00:54:40.396Z,2.04
2018-12-13T00:55:40.377Z,1.93
2018-12-13T00:56:40.359Z,2.04
2018-12-13T00:57:40.348Z,1.88
2018-12-13T00:58:40.329Z,2.05
2018-12-13T00:59:40.312Z,2.15
2018-12-13T01:00:40.297Z,2.11
2018-12-13T01:01:40.279Z,2.15
2018-12-13T01:02:40.262Z,2.05
2018-12-13T01:03:40.243Z,1.93
2018-12-13T01:04:40.227Z,1.81
2018-12-13T01:05:40.713Z,1.79
2018-12-13T01:06:45.856Z,1.79
2018-12-13T01:07:40.211Z,1.81
2018-12-13T01:08:40.158Z,1.74
2018-12-13T01:09:40.144Z,1.72
2018-12-13T01:10:40.129Z,1.89
2018-12-13T01:11:40.111Z,1.85
2018-12-13T01:12:40.103Z,1.92
2018-12-13T01:13:40.075Z,1.85
2018-12-13T01:14:40.058Z,1.75
2018-12-13T01:15:40.043Z,1.90
2018-12-13T01:16:40.025Z,1.83
2018-12-13T01:17:40.006Z,1.83
2018-12-13T01:18:39.994Z,1.88
2018-12-13T01:19:39.973Z,1.85
2018-12-13T01:20:39.954Z,1.88
2018-12-13T01:21:39.940Z,1.85
2018-12-13T01:22:39.923Z,2.01
2018-12-13T01:23:39.906Z,2.02
2018-12-13T01:24:39.888Z,2.25
2018-12-13T01:25:39.875Z,2.37
2018-12-13T01:26:39.857Z,2.33
2018-12-13T01:27:39.842Z,2.33
2018-12-13T01:28:39.820Z,2.33
2018-12-13T01:29:39.804Z,2.36
2018-12-13T01:30:39.787Z,2.32
2018-12-13T01:31:39.770Z,2.45
2018-12-13T01:32:39.751Z,2.37
2018-12-13T01:33:39.735Z,2.33
2018-12-13T01:34:39.716Z,2.38
2018-12-13T01:35:39.702Z,2.50
2018-12-13T01:36:39.683Z,2.53
2018-12-13T01:37:39.667Z,2.56
2018-12-13T01:38:39.649Z,2.58
2018-12-13T01:39:39.632Z,2.65
2018-12-13T01:40:39.615Z,2.48
2018-12-13T01:41:39.599Z,2.44
2018-12-13T01:42:39.581Z,2.41
2018-12-13T01:43:39.566Z,2.43
2018-12-13T01:44:39.551Z,2.40
2018-12-13T01:45:39.532Z,2.40
2018-12-13T01:46:39.515Z,2.38
2018-12-13T01:47:39.500Z,2.32
2018-12-13T01:48:39.480Z,2.43
2018-12-13T01:49:39.463Z,2.30
2018-12-13T01:50:39.447Z,2.25
2018-12-13T01:51:39.429Z,2.12
2018-12-13T01:52:39.413Z,2.12
2018-12-13T01:53:39.394Z,2.15
2018-12-13T01:54:39.379Z,2.15
2018-12-13T01:55:39.364Z,2.08
2018-12-13T01:56:39.344Z,2.00
2018-12-13T01:57:39.328Z,2.02
2018-12-13T01:58:39.313Z,2.09
2018-12-13T01:59:39.295Z,2.09
2018-12-13T02:00:39.276Z,2.01
2018-12-13T02:01:39.260Z,2.07
2018-12-13T02:02:39.244Z,2.04
2018-12-13T02:03:39.229Z,2.02
2018-12-13T02:04:39.257Z,2.11
2018-12-13T02:05:39.191Z,2.01
2018-12-13T02:06:39.177Z,2.09
2018-12-13T02:07:39.161Z,2.11
2018-12-13T02:08:39.142Z,2.02
2018-12-13T02:09:39.127Z,2.20
2018-12-13T02:10:39.110Z,2.20
2018-12-13T02:11:39.098Z,2.18
2018-12-13T02:12:39.075Z,2.02
2018-12-13T02:13:39.059Z,2.15
2018-12-13T02:14:39.042Z,2.11
2018-12-13T02:15:39.031Z,2.12
2018-12-13T02:16:39.008Z,2.14
2018-12-13T02:17:38.994Z,2.12
2018-12-13T02:18:38.975Z,2.11
2018-12-13T02:19:38.958Z,2.27
2018-12-13T02:20:38.941Z,2.26
2018-12-13T02:21:38.924Z,2.20
2018-12-13T02:22:38.909Z,2.20
2018-12-13T02:23:38.894Z,2.37
2018-12-13T02:24:38.873Z,2.40
2018-12-13T02:25:38.858Z,2.43
2018-12-13T02:26:38.840Z,2.53
2018-12-13T02:27:38.825Z,2.56
2018-12-13T02:28:38.808Z,2.63
2018-12-13T02:29:38.789Z,2.84
2018-12-13T02:30:38.776Z,2.77
2018-12-13T02:31:38.758Z,2.98
2018-12-13T02:32:38.738Z,2.90
2018-12-13T02:33:38.724Z,2.87
2018-12-13T02:34:38.705Z,3.02
2018-12-13T02:35:38.688Z,3.10
2018-12-13T02:36:38.672Z,3.04
2018-12-13T02:37:38.657Z,3.16
2018-12-13T02:38:38.641Z,3.26
2018-12-13T02:39:38.623Z,3.31
2018-12-13T02:40:38.604Z,3.39
2018-12-13T02:41:38.590Z,3.45
2018-12-13T02:42:38.575Z,3.34
2018-12-13T02:43:38.554Z,3.34
2018-12-13T02:44:38.540Z,3.41
2018-12-13T02:45:38.522Z,3.39
2018-12-13T02:46:38.507Z,3.35
2018-12-13T02:47:38.489Z,3.41
2018-12-13T02:48:38.471Z,3.45
2018-12-13T02:49:38.453Z,3.46
2018-12-13T02:50:38.439Z,3.34
2018-12-13T02:51:38.421Z,3.28
2018-12-13T02:52:38.405Z,3.16
2018-12-13T02:53:38.386Z,3.07
2018-12-13T02:54:38.371Z,3.22
2018-12-13T02:55:38.353Z,3.05
2018-12-13T02:56:38.336Z,3.10
2018-12-13T02:57:38.321Z,3.13
2018-12-13T02:58:38.304Z,3.05
2018-12-13T02:59:38.288Z,3.01
2018-12-13T03:00:38.291Z,2.92
2018-12-13T03:01:38.254Z,2.94
2018-12-13T03:02:38.239Z,2.83
2018-12-13T03:03:38.221Z,2.89
2018-12-13T03:04:38.203Z,3.05
2018-12-13T03:05:38.187Z,3.13
2018-12-13T03:06:38.173Z,3.25
2018-12-13T03:07:38.158Z,3.22
2018-12-13T03:08:38.139Z,3.20
2018-12-13T03:09:38.126Z,3.20
2018-12-13T03:10:38.107Z,3.13
2018-12-13T03:11:38.091Z,3.04
2018-12-13T03:12:38.072Z,3.05
2018-12-13T03:13:38.055Z,2.98
2018-12-13T03:14:38.039Z,3.01
2018-12-13T03:15:38.023Z,2.90
2018-12-13T03:16:38.006Z,2.97
2018-12-13T03:17:37.990Z,3.05
2018-12-13T03:18:37.973Z,3.04
2018-12-13T03:19:38.037Z,2.99
2018-12-13T03:20:37.941Z,3.07
2018-12-13T03:21:37.924Z,3.05
2018-12-13T03:22:37.908Z,3.05
2018-12-13T03:23:37.894Z,3.07
2018-12-13T03:24:37.873Z,3.01
2018-12-13T03:25:37.858Z,3.05
2018-12-13T03:26:37.844Z,3.12
2018-12-13T03:27:37.828Z,3.15
2018-12-13T03:28:37.810Z,3.13
2018-12-13T03:29:37.792Z,3.25
2018-12-13T03:30:37.777Z,3.25
2018-12-13T03:31:37.762Z,3.46
2018-12-13T03:32:37.742Z,3.57
2018-12-13T03:33:37.725Z,3.44
2018-12-13T03:34:37.708Z,3.45
2018-12-13T03:35:37.695Z,3.57
2018-12-13T03:36:37.677Z,3.62
2018-12-13T03:37:37.661Z,3.71
2018-12-13T03:38:37.645Z,3.71
2018-12-13T03:39:37.628Z,3.60
2018-12-13T03:40:37.610Z,3.49
2018-12-13T03:41:37.596Z,3.62
2018-12-13T03:42:37.580Z,3.59
2018-12-13T03:43:37.574Z,3.72
2018-12-13T03:44:37.564Z,3.72
2018-12-13T03:45:37.530Z,3.71
2018-12-13T03:46:37.513Z,3.60
2018-12-13T03:47:37.495Z,3.50
2018-12-13T03:48:37.478Z,3.50
2018-12-13T03:49:37.472Z,3.46
2018-12-13T03:50:37.447Z,3.41
2018-12-13T03:51:37.431Z,3.35
2018-12-13T03:52:37.416Z,3.42
2018-12-13T03:53:37.398Z,3.59
2018-12-13T03:54:37.381Z,3.57
2018-12-13T03:55:37.364Z,3.46
2018-12-13T03:56:37.355Z,3.56
2018-12-13T03:57:37.335Z,3.57
2018-12-13T03:58:37.315Z,3.62
2018-12-13T03:59:37.299Z,3.52
2018-12-13T04:00:37.285Z,3.50
2018-12-13T04:01:37.264Z,3.52
2018-12-13T04:02:37.250Z,3.50
2018-12-13T04:03:37.233Z,3.39
2018-12-13T04:04:37.215Z,3.52
2018-12-13T04:05:37.200Z,3.46
2018-12-13T04:06:37.181Z,3.39
2018-12-13T04:07:37.171Z,3.39
2018-12-13T04:08:37.150Z,3.39
2018-12-13T04:09:37.133Z,3.35
2018-12-13T04:10:37.117Z,3.45
2018-12-13T04:11:37.103Z,3.33
2018-12-13T04:12:37.083Z,3.30
2018-12-13T04:13:37.069Z,3.19
2018-12-13T04:14:37.055Z,3.17
2018-12-13T04:15:37.034Z,3.19
2018-12-13T04:16:37.020Z,3.23
2018-12-13T04:17:37.002Z,3.16
2018-12-13T04:18:36.985Z,2.99
2018-12-13T04:19:36.967Z,3.08
2018-12-13T04:20:36.953Z,3.07
2018-12-13T04:21:36.940Z,3.16
2018-12-13T04:22:36.919Z,3.15
2018-12-13T04:23:36.904Z,3.05
2018-12-13T04:24:36.886Z,3.02
2018-12-13T04:25:36.869Z,2.92
2018-12-13T04:26:36.853Z,3.04
2018-12-13T04:27:36.837Z,3.08
2018-12-13T04:28:36.822Z,3.04
2018-12-13T04:29:36.805Z,3.02
2018-12-13T04:30:36.790Z,2.95
2018-12-13T04:31:36.772Z,2.94
2018-12-13T04:32:36.755Z,2.80
2018-12-13T04:33:36.737Z,2.86
2018-12-13T04:34:36.722Z,2.81
2018-12-13T04:35:36.709Z,2.77
2018-12-13T04:36:36.687Z,2.69
2018-12-13T04:37:36.669Z,2.80
2018-12-13T04:38:36.654Z,2.71
2018-12-13T04:39:36.637Z,2.80
2018-12-13T04:40:36.621Z,2.74
2018-12-13T04:41:36.605Z,2.66
2018-12-13T04:42:36.589Z,2.76
2018-12-13T04:43:36.570Z,2.81
2018-12-13T04:44:37.923Z,2.74
2018-12-13T04:45:36.536Z,2.81
2018-12-13T04:46:36.524Z,2.80
2018-12-13T04:47:36.504Z,2.87
2018-12-13T04:48:36.486Z,2.84
2018-12-13T04:49:36.474Z,2.86
2018-12-13T04:50:36.455Z,2.89
2018-12-13T04:51:36.438Z,2.80
2018-12-13T04:52:36.420Z,2.77
2018-12-13T04:53:36.405Z,2.71
2018-12-13T04:54:36.387Z,2.63
2018-12-13T04:55:36.369Z,2.59
2018-12-13T04:56:36.353Z,2.53
2018-12-13T04:57:36.337Z,2.50
2018-12-13T04:58:36.320Z,2.47
2018-12-13T04:59:36.305Z,2.38
2018-12-13T05:00:36.287Z,2.29
2018-12-13T05:01:36.270Z,2.30
2018-12-13T05:02:36.254Z,2.30
2018-12-13T05:03:36.241Z,2.36
2018-12-13T05:04:36.218Z,2.32
2018-12-13T05:05:36.206Z,2.30
2018-12-13T05:06:36.188Z,2.22
2018-12-13T05:07:41.528Z,2.33
2018-12-13T05:08:36.153Z,2.30
2018-12-13T05:09:36.137Z,2.37
2018-12-13T05:10:36.122Z,2.25
2018-12-13T05:11:36.105Z,2.26
2018-12-13T05:12:36.087Z,2.09
2018-12-13T05:13:36.071Z,2.15
2018-12-13T05:14:36.055Z,2.18
2018-12-13T05:15:36.038Z,2.18
2018-12-13T05:16:36.021Z,2.20
2018-12-13T05:17:36.010Z,2.08
2018-12-13T05:18:35.988Z,2.19
2018-12-13T05:19:35.977Z,2.25
2018-12-13T05:20:35.953Z,2.37
2018-12-13T05:21:35.939Z,2.53
2018-12-13T05:22:35.921Z,2.53
2018-12-13T05:23:35.906Z,2.50
2018-12-13T05:24:35.886Z,2.59
2018-12-13T05:25:35.872Z,2.53
2018-12-13T05:26:35.857Z,2.40
2018-12-13T05:27:35.837Z,2.38
2018-12-13T05:28:35.820Z,2.32
2018-12-13T05:29:35.804Z,2.36
2018-12-13T05:30:35.788Z,2.45
2018-12-13T05:31:35.770Z,2.29
2018-12-13T05:32:35.752Z,2.41
2018-12-13T05:33:35.735Z,2.32
2018-12-13T05:34:35.720Z,2.37
2018-12-13T05:35:35.708Z,2.25
2018-12-13T05:36:35.690Z,2.11
2018-12-13T05:37:35.669Z,2.20
2018-12-13T05:38:35.653Z,2.12
2018-12-13T05:39:35.637Z,2.08
2018-12-13T05:40:35.620Z,2.01
2018-12-13T05:41:35.600Z,2.02
2018-12-13T05:42:35.586Z,1.86
2018-12-13T05:43:35.571Z,2.07
2018-12-13T05:44:35.553Z,2.04
2018-12-13T05:45:35.534Z,2.18
2018-12-13T05:46:35.519Z,2.18
2018-12-13T05:47:35.501Z,2.11
2018-12-13T05:48:35.490Z,2.19
2018-12-13T05:49:35.469Z,2.08
2018-12-13T05:50:35.453Z,2.09
2018-12-13T05:51:35.433Z,2.18
2018-12-13T05:52:35.416Z,2.19
2018-12-13T05:53:35.399Z,2.26
2018-12-13T05:54:35.383Z,2.11
2018-12-13T05:55:35.366Z,2.09
2018-12-13T05:56:35.351Z,2.22
2018-12-13T05:57:35.332Z,2.18
2018-12-13T05:58:35.316Z,2.14
2018-12-13T05:59:35.300Z,2.11
2018-12-13T06:00:35.284Z,2.12
2018-12-13T06:01:35.264Z,2.04
2018-12-13T06:02:35.249Z,1.83
2018-12-13T06:03:35.231Z,1.74
2018-12-13T06:04:35.213Z,1.71
2018-12-13T06:05:35.194Z,1.72
2018-12-13T06:06:35.180Z,1.68
2018-12-13T06:07:35.164Z,1.53
2018-12-13T06:08:35.147Z,1.61
2018-12-13T06:09:35.128Z,1.67
2018-12-13T06:10:35.111Z,1.79
2018-12-13T06:11:35.093Z,1.75
2018-12-13T06:12:35.080Z,1.74
2018-12-13T06:13:35.062Z,1.72
2018-12-13T06:14:35.047Z,1.75
2018-12-13T06:15:35.028Z,1.71
2018-12-13T06:16:35.011Z,1.72
2018-12-13T06:17:34.995Z,1.68
2018-12-13T06:18:34.977Z,1.54
2018-12-13T06:19:34.960Z,1.54
2018-12-13T06:20:34.999Z,1.61
2018-12-13T06:21:37.059Z,1.70
2018-12-13T06:22:34.911Z,1.68
2018-12-13T06:23:34.894Z,1.64
2018-12-13T06:24:34.874Z,1.57
2018-12-13T06:25:34.884Z,1.54
2018-12-13T06:26:34.843Z,1.65
2018-12-13T06:27:34.824Z,1.61
2018-12-13T06:28:34.807Z,1.60
2018-12-13T06:29:34.792Z,1.54
2018-12-13T06:30:34.774Z,1.44
2018-12-13T06:31:34.758Z,1.50
2018-12-13T06:32:34.743Z,1.50
2018-12-13T06:33:34.723Z,1.42
2018-12-13T06:34:34.705Z,1.39
2018-12-13T06:35:34.689Z,1.43
2018-12-13T06:36:34.673Z,1.53
2018-12-13T06:37:34.655Z,1.52
2018-12-13T06:38:34.638Z,1.47
2018-12-13T06:39:34.621Z,1.38
2018-12-13T06:40:34.604Z,1.29
2018-12-13T06:41:34.586Z,1.35
2018-12-13T06:42:34.568Z,1.32
2018-12-13T06:43:34.554Z,1.31
2018-12-13T06:44:34.536Z,1.26
2018-12-13T06:45:34.522Z,1.29
2018-12-13T06:46:34.505Z,1.24
2018-12-13T06:47:34.485Z,1.14
2018-12-13T06:48:34.467Z,1.28
2018-12-13T06:49:34.450Z,1.34
2018-12-13T06:50:34.433Z,1.36
2018-12-13T06:51:34.414Z,1.38
2018-12-13T06:52:34.400Z,1.34
2018-12-13T06:53:34.383Z,1.28
2018-12-13T06:54:34.366Z,1.18
2018-12-13T06:55:34.347Z,1.20
2018-12-13T06:56:34.331Z,1.34
2018-12-13T06:57:34.313Z,1.20
2018-12-13T06:58:34.295Z,1.29
2018-12-13T06:59:34.278Z,1.29
2018-12-13T07:00:34.262Z,1.28
2018-12-13T07:01:34.243Z,1.28
2018-12-13T07:02:34.226Z,1.29
2018-12-13T07:03:34.210Z,1.39
2018-12-13T07:04:34.191Z,1.36
2018-12-13T07:05:34.173Z,1.42
2018-12-13T07:06:34.165Z,1.46
2018-12-13T07:07:34.140Z,1.36
2018-12-13T07:08:34.123Z,1.39
2018-12-13T07:09:34.106Z,1.29
2018-12-13T07:10:34.090Z,1.32
2018-12-13T07:11:34.072Z,1.39
2018-12-13T07:12:34.054Z,1.34
2018-12-13T07:13:34.038Z,1.35
2018-12-13T07:14:34.021Z,1.26
2018-12-13T07:15:34.006Z,1.24
2018-12-13T07:16:33.987Z,1.25
2018-12-13T07:17:33.967Z,1.29
2018-12-13T07:18:33.952Z,1.28
2018-12-13T07:19:33.935Z,1.31
2018-12-13T07:20:33.915Z,1.31
2018-12-13T07:21:33.902Z,1.28
2018-12-13T07:22:33.883Z,1.32
2018-12-13T07:23:33.867Z,1.25
2018-12-13T07:24:33.848Z,1.32
2018-12-13T07:25:33.831Z,1.34
2018-12-13T07:26:33.813Z,1.29
2018-12-13T07:27:33.797Z,1.31
2018-12-13T07:28:33.778Z,1.36
2018-12-13T07:29:33.763Z,1.32
2018-12-13T07:30:33.746Z,1.38
2018-12-13T07:31:33.727Z,1.39
2018-12-13T07:32:33.711Z,1.39
2018-12-13T07:33:33.693Z,1.44
2018-12-13T07:34:33.677Z,1.36
2018-12-13T07:35:33.661Z,1.44
2018-12-13T07:36:33.642Z,1.39
2018-12-13T07:37:33.624Z,1.44
2018-12-13T07:38:33.607Z,1.39
2018-12-13T07:39:33.591Z,1.49
2018-12-13T07:40:33.572Z,1.42
2018-12-13T07:41:33.557Z,1.47
2018-12-13T07:42:33.538Z,1.47
2018-12-13T07:43:33.521Z,1.57
2018-12-13T07:44:33.505Z,1.47
2018-12-13T07:45:33.488Z,1.53
2018-12-13T07:46:33.472Z,1.57
2018-12-13T07:47:33.455Z,1.53
2018-12-13T07:48:33.436Z,1.60
2018-12-13T07:49:33.422Z,1.54
2018-12-13T07:50:33.403Z,1.56
2018-12-13T07:51:33.386Z,1.70
2018-12-13T07:52:33.369Z,1.61
2018-12-13T07:53:33.388Z,1.63
2018-12-13T07:54:33.335Z,1.65
2018-12-13T07:55:33.318Z,1.71
2018-12-13T07:56:33.299Z,1.77
2018-12-13T07:57:33.282Z,1.67
2018-12-13T07:58:33.267Z,1.71
2018-12-13T07:59:33.257Z,1.79
2018-12-13T08:00:33.239Z,1.77
2018-12-13T08:01:33.215Z,1.74
2018-12-13T08:02:33.200Z,1.71
2018-12-13T08:03:33.183Z,1.81
2018-12-13T08:04:33.170Z,1.83
2018-12-13T08:05:33.149Z,1.85
2018-12-13T08:06:33.132Z,1.83
2018-12-13T08:07:33.115Z,1.82
2018-12-13T08:08:33.097Z,1.95
2018-12-13T08:09:33.080Z,1.88
2018-12-13T08:10:33.063Z,1.92
2018-12-13T08:11:33.047Z,1.88
2018-12-13T08:12:33.033Z,1.89
2018-12-13T08:13:33.012Z,2.04
2018-12-13T08:14:32.997Z,2.05
2018-12-13T08:15:32.980Z,2.14
2018-12-13T08:16:32.960Z,2.19
2018-12-13T08:17:32.944Z,2.15
2018-12-13T08:18:32.929Z,2.11
2018-12-13T08:19:32.913Z,2.11
2018-12-13T08:20:32.896Z,2.20
2018-12-13T08:21:32.879Z,2.23
2018-12-13T08:22:32.862Z,2.25
2018-12-13T08:23:32.844Z,2.37
2018-12-13T08:24:32.829Z,2.29
2018-12-13T08:25:32.811Z,2.32
2018-12-13T08:26:32.796Z,2.27
2018-12-13T08:27:32.778Z,2.23
2018-12-13T08:28:32.761Z,2.25
2018-12-13T08:29:32.748Z,2.26
2018-12-13T08:30:32.730Z,2.23
2018-12-13T08:31:32.712Z,2.26
2018-12-13T08:32:32.696Z,2.23
2018-12-13T08:33:32.680Z,2.23
2018-12-13T08:34:32.664Z,2.36
2018-12-13T08:35:32.646Z,2.33
2018-12-13T08:36:32.630Z,2.37
2018-12-13T08:37:32.612Z,2.47
2018-12-13T08:38:32.595Z,2.59
2018-12-13T08:39:32.580Z,2.56
2018-12-13T08:40:32.565Z,2.59
2018-12-13T08:41:32.545Z,2.50
2018-12-13T08:42:32.531Z,2.58
2018-12-13T08:43:32.514Z,2.56
2018-12-13T08:44:32.499Z,2.62
2018-12-13T08:45:32.482Z,2.61
2018-12-13T08:46:36.472Z,2.71
2018-12-13T08:47:32.450Z,2.71
2018-12-13T08:48:32.432Z,2.80
2018-12-13T08:49:32.416Z,2.74
2018-12-13T08:50:32.399Z,2.81
2018-12-13T08:51:32.382Z,2.90
2018-12-13T08:52:32.368Z,2.87
2018-12-13T08:53:32.350Z,2.80
2018-12-13T08:54:32.334Z,2.87
2018-12-13T08:55:32.318Z,2.86
2018-12-13T08:56:32.301Z,2.87
2018-12-13T08:57:32.286Z,2.86
2018-12-13T08:58:32.269Z,2.79
2018-12-13T08:59:32.253Z,2.74
2018-12-13T09:00:32.239Z,2.84
2018-12-13T09:01:32.222Z,2.90
2018-12-13T09:02:32.207Z,2.95
2018-12-13T09:03:32.190Z,2.89
2018-12-13T09:04:32.171Z,2.98
2018-12-13T09:05:32.157Z,2.97
2018-12-13T09:06:32.141Z,3.02
2018-12-13T09:07:32.125Z,3.04
2018-12-13T09:08:33.745Z,3.08
2018-12-13T09:09:32.092Z,3.25
2018-12-13T09:10:32.075Z,3.33
2018-12-13T09:11:32.059Z,3.35
2018-12-13T09:12:32.043Z,3.46
2018-12-13T09:13:32.026Z,3.54
2018-12-13T09:14:32.012Z,3.70
2018-12-13T09:15:31.995Z,3.75
2018-12-13T09:16:31.979Z,3.81
2018-12-13T09:17:31.965Z,3.96
2018-12-13T09:18:31.947Z,3.93
2018-12-13T09:19:31.930Z,3.99
2018-12-13T09:20:31.915Z,4.08
2018-12-13T09:21:31.900Z,3.98
2018-12-13T09:22:31.885Z,4.13
2018-12-13T09:23:31.867Z,4.24
2018-12-13T09:24:31.851Z,4.18
2018-12-13T09:25:31.835Z,4.29
2018-12-13T09:26:31.822Z,4.42
2018-12-13T09:27:31.805Z,4.47
2018-12-13T09:28:31.787Z,4.43
2018-12-13T09:29:31.772Z,4.39
2018-12-13T09:30:31.759Z,4.54
2018-12-13T09:31:31.743Z,4.62
2018-12-13T09:32:31.727Z,4.67
2018-12-13T09:33:31.712Z,4.69
2018-12-13T09:34:31.694Z,4.74
2018-12-13T09:35:31.680Z,4.84
2018-12-13T09:36:31.664Z,4.80
2018-12-13T09:37:31.651Z,4.88
2018-12-13T09:38:31.635Z,4.93
2018-12-13T09:39:31.618Z,4.83
2018-12-13T09:40:31.604Z,4.93
2018-12-13T09:41:31.587Z,4.94
2018-12-13T09:42:31.575Z,4.86
2018-12-13T09:43:31.559Z,4.87
2018-12-13T09:44:31.544Z,4.83
2018-12-13T09:45:31.526Z,4.77
2018-12-13T09:46:31.513Z,4.83
2018-12-13T09:47:31.499Z,4.88
2018-12-13T09:48:31.484Z,4.86
2018-12-13T09:49:31.465Z,4.57
2018-12-13T09:50:31.449Z,4.44
2018-12-13T09:51:31.435Z,4.38
2018-12-13T09:52:31.417Z,4.49
2018-12-13T09:53:31.404Z,4.44
2018-12-13T09:54:31.388Z,4.38
2018-12-13T09:55:31.373Z,4.35
2018-12-13T09:56:31.357Z,4.32
2018-12-13T09:57:31.340Z,4.24
2018-12-13T09:58:31.323Z,4.35
2018-12-13T09:59:31.310Z,4.39
2018-12-13T10:00:31.297Z,4.34
2018-12-13T10:01:31.280Z,4.38
2018-12-13T10:02:31.267Z,4.21
2018-12-13T10:03:31.250Z,4.16
2018-12-13T10:04:31.231Z,4.20
2018-12-13T10:05:31.215Z,4.24
2018-12-13T10:06:31.201Z,4.13
2018-12-13T10:07:31.185Z,4.16
2018-12-13T10:08:31.169Z,3.99
2018-12-13T10:09:31.154Z,3.95
2018-12-13T10:10:31.139Z,4.00
2018-12-13T10:11:31.123Z,4.10
2018-12-13T10:12:31.107Z,4.11
2018-12-13T10:13:31.090Z,4.17
2018-12-13T10:14:31.075Z,4.16
2018-12-13T10:15:32.139Z,4.32
2018-12-13T10:16:31.045Z,4.29
2018-12-13T10:17:31.027Z,4.29
2018-12-13T10:18:31.011Z,4.32
2018-12-13T10:19:30.996Z,4.36
2018-12-13T10:20:30.985Z,4.25
2018-12-13T10:21:30.965Z,4.21
2018-12-13T10:22:30.947Z,4.26
2018-12-13T10:23:30.933Z,4.36
2018-12-13T10:24:30.925Z,4.54
2018-12-13T10:25:30.905Z,4.59
2018-12-13T10:26:30.885Z,4.74
2018-12-13T10:27:30.871Z,4.80
2018-12-13T10:28:30.852Z,4.86
2018-12-13T10:29:30.838Z,4.86
2018-12-13T10:30:30.822Z,4.69
2018-12-13T10:31:30.805Z,4.71
2018-12-13T10:32:30.790Z,4.57
2018-12-13T10:33:30.776Z,4.61
2018-12-13T10:34:30.760Z,4.51
2018-12-13T10:35:30.744Z,4.56
2018-12-13T10:36:30.727Z,4.79
2018-12-13T10:37:30.712Z,4.87
2018-12-13T10:38:30.697Z,4.77
2018-12-13T10:39:30.681Z,4.77
2018-12-13T10:40:30.666Z,4.80
2018-12-13T10:41:30.650Z,4.74
2018-12-13T10:42:30.633Z,4.77
2018-12-13T10:43:30.619Z,4.68
2018-12-13T10:44:30.602Z,4.72
2018-12-13T10:45:30.589Z,4.84
2018-12-13T10:46:30.573Z,4.74
2018-12-13T10:47:30.557Z,4.69
2018-12-13T10:48:30.541Z,4.64
2018-12-13T10:49:30.525Z,4.64
2018-12-13T10:50:30.514Z,4.67
2018-12-13T10:51:30.498Z,4.44
2018-12-13T10:52:30.479Z,4.42
2018-12-13T10:53:30.463Z,4.39
2018-12-13T10:54:30.448Z,4.35
2018-12-13T10:55:30.432Z,4.29
2018-12-13T10:56:30.415Z,4.25
2018-12-13T10:57:30.401Z,4.11
2018-12-13T10:58:30.385Z,3.99
2018-12-13T10:59:30.370Z,4.07
2018-12-13T11:00:30.354Z,4.07
2018-12-13T11:01:30.338Z,4.02
2018-12-13T11:02:30.323Z,4.08
2018-12-13T11:03:30.306Z,4.13
2018-12-13T11:04:30.293Z,4.20
2018-12-13T11:05:30.273Z,4.10
2018-12-13T11:06:30.299Z,4.10
2018-12-13T11:07:30.242Z,3.96
2018-12-13T11:08:30.226Z,3.95
2018-12-13T11:09:30.211Z,4.04
2018-12-13T11:10:30.194Z,4.06
2018-12-13T11:11:30.178Z,3.99
2018-12-13T11:12:30.163Z,4.06
2018-12-13T11:13:30.147Z,4.04
2018-12-13T11:14:30.129Z,3.98
2018-12-13T11:15:30.113Z,3.95
2018-12-13T11:16:30.096Z,4.17
2018-12-13T11:17:30.081Z,4.16
2018-12-13T11:18:30.065Z,4.16
2018-12-13T11:19:30.051Z,4.17
2018-12-13T11:20:30.032Z,3.92
2018-12-13T11:21:30.018Z,3.95
2018-12-13T11:22:30.000Z,3.98
2018-12-13T11:23:29.985Z,3.90
2018-12-13T11:24:29.969Z,3.92
2018-12-13T11:25:29.953Z,3.81
2018-12-13T11:26:29.936Z,3.89
2018-12-13T11:27:29.919Z,3.92
2018-12-13T11:28:29.902Z,3.96
2018-12-13T11:29:29.888Z,3.92
2018-12-13T11:30:29.876Z,4.06
2018-12-13T11:31:29.855Z,4.08
2018-12-13T11:32:29.842Z,4.04
2018-12-13T11:33:29.821Z,4.08
2018-12-13T11:34:29.805Z,4.02
2018-12-13T11:35:29.789Z,3.93
2018-12-13T11:36:29.780Z,3.90
2018-12-13T11:37:29.757Z,3.89
2018-12-13T11:38:29.740Z,4.04
2018-12-13T11:39:29.729Z,3.99
2018-12-13T11:40:29.706Z,3.93
2018-12-13T11:41:29.690Z,3.96
2018-12-13T11:42:29.676Z,3.98
2018-12-13T11:43:29.661Z,4.07
2018-12-13T11:44:29.643Z,4.17
2018-12-13T11:45:29.626Z,4.13
2018-12-13T11:46:29.609Z,4.08
2018-12-13T11:47:29.594Z,3.89
2018-12-13T11:48:29.576Z,3.86
2018-12-13T11:49:29.561Z,3.88
2018-12-13T11:50:29.552Z,3.81
2018-12-13T11:51:29.529Z,3.82
2018-12-13T11:52:29.510Z,3.77
2018-12-13T11:53:29.495Z,3.74
2018-12-13T11:54:29.481Z,3.71
2018-12-13T11:55:29.465Z,3.72
2018-12-13T11:56:29.444Z,3.77
2018-12-13T11:57:29.428Z,3.74
2018-12-13T11:58:29.412Z,3.81
2018-12-13T11:59:29.397Z,3.82
2018-12-13T12:00:29.381Z,3.81
2018-12-13T12:01:29.364Z,3.71
2018-12-13T12:02:29.348Z,3.72
2018-12-13T12:03:29.338Z,3.74
2018-12-13T12:04:29.316Z,3.74
2018-12-13T12:05:29.299Z,3.63
2018-12-13T12:06:29.283Z,3.72
2018-12-13T12:07:29.267Z,3.70
2018-12-13T12:08:29.248Z,3.71
2018-12-13T12:09:29.231Z,3.71
2018-12-13T12:10:29.216Z,3.56
2018-12-13T12:11:29.200Z,3.57
2018-12-13T12:12:29.184Z,3.60
2018-12-13T12:13:29.166Z,3.68
2018-12-13T12:14:29.149Z,3.68
2018-12-13T12:15:29.134Z,3.68
2018-12-13T12:16:29.116Z,3.75
2018-12-13T12:17:29.100Z,3.80
2018-12-13T12:18:29.084Z,3.74
2018-12-13T12:19:29.070Z,3.77
2018-12-13T12:20:29.051Z,3.78
2018-12-13T12:21:29.035Z,3.77
2018-12-13T12:22:29.018Z,3.86
2018-12-13T12:23:29.003Z,3.82
2018-12-13T12:24:29.005Z,3.80
2018-12-13T12:25:29.044Z,3.72
2018-12-13T12:26:28.953Z,3.70
2018-12-13T12:27:28.938Z,3.57
2018-12-13T12:28:28.920Z,3.54
2018-12-13T12:29:28.903Z,3.56
2018-12-13T12:30:28.886Z,3.42
2018-12-13T12:31:28.870Z,3.49
2018-12-13T12:32:28.853Z,3.49
2018-12-13T12:33:28.838Z,3.35
2018-12-13T12:34:28.854Z,3.35
2018-12-13T12:35:28.803Z,3.39
2018-12-13T12:36:28.787Z,3.39
2018-12-13T12:37:28.771Z,3.39
2018-12-13T12:38:28.753Z,3.30
2018-12-13T12:39:28.744Z,3.26
2018-12-13T12:40:28.722Z,3.26
2018-12-13T12:41:28.704Z,3.26
2018-12-13T12:42:28.687Z,3.26
2018-12-13T12:43:28.672Z,3.25
2018-12-13T12:44:28.652Z,3.19
2018-12-13T12:45:28.650Z,3.28
2018-12-13T12:46:28.619Z,3.15
2018-12-13T12:47:28.604Z,3.19
2018-12-13T12:48:28.587Z,3.12
2018-12-13T12:49:28.569Z,3.08
2018-12-13T12:50:28.555Z,3.07
2018-12-13T12:51:29.603Z,2.99
2018-12-13T12:52:28.519Z,2.90
2018-12-13T12:53:28.503Z,3.01
2018-12-13T12:54:28.486Z,3.01
2018-12-13T12:55:28.469Z,3.01
2018-12-13T12:56:28.451Z,3.02
2018-12-13T12:57:28.437Z,3.01
2018-12-13T12:58:28.418Z,3.02
2018-12-13T12:59:28.402Z,3.10
2018-12-13T13:00:28.384Z,3.10
2018-12-13T13:01:28.367Z,3.20
2018-12-13T13:02:28.361Z,3.23
2018-12-13T13:03:28.334Z,3.19
2018-12-13T13:04:28.314Z,3.28
2018-12-13T13:05:28.299Z,3.20
2018-12-13T13:06:28.285Z,3.28
2018-12-13T13:07:28.266Z,3.25
2018-12-13T13:08:28.250Z,3.31
2018-12-13T13:09:28.231Z,3.30
2018-12-13T13:10:28.215Z,3.37
2018-12-13T13:11:28.197Z,3.37
2018-12-13T13:12:28.180Z,3.41
2018-12-13T13:13:28.165Z,3.57
2018-12-13T13:14:28.147Z,3.54
2018-12-13T13:15:28.133Z,3.50
2018-12-13T13:16:28.114Z,3.49
2018-12-13T13:17:28.096Z,3.41
2018-12-13T13:18:28.079Z,3.54